createdAt,value
2018-05-11T00:03:31.157Z,13.37
2018-05-11T00:09:35.640Z,13.30
2018-05-11T00:15:40.000Z,13.29
2018-05-11T00:21:44.388Z,13.28
2018-05-11T00:27:49.173Z,13.19
2018-05-11T00:33:53.985Z,13.17
2018-05-11T00:39:58.380Z,13.01
2018-05-11T00:46:03.489Z,13.04
2018-05-11T00:52:07.858Z,12.95
2018-05-11T00:58:12.964Z,13.04
2018-05-11T01:04:17.379Z,13.05
2018-05-11T01:10:21.881Z,13.13
2018-05-11T01:16:26.510Z,13.10
2018-05-11T01:22:30.946Z,13.13
2018-05-11T01:28:36.113Z,12.94
2018-05-11T01:34:40.460Z,13.05
2018-05-11T01:40:44.801Z,13.19
2018-05-11T01:46:49.571Z,13.26
2018-05-11T01:52:54.005Z,13.26
2018-05-11T01:58:58.495Z,13.08
2018-05-11T02:05:02.859Z,12.93
2018-05-11T02:11:07.231Z,13.00
2018-05-11T02:17:11.571Z,12.72
2018-05-11T02:23:15.920Z,12.80
2018-05-11T02:29:21.418Z,12.59
2018-05-11T02:35:26.560Z,12.56
2018-05-11T02:41:30.913Z,12.77
2018-05-11T02:47:35.287Z,12.76
2018-05-11T02:53:39.633Z,12.69
2018-05-11T02:59:44.812Z,12.80
2018-05-11T03:05:49.949Z,12.66
2018-05-11T03:11:55.053Z,12.87
2018-05-11T03:17:59.432Z,12.67
2018-05-11T03:24:03.806Z,12.84
2018-05-11T03:30:08.288Z,12.91
2018-05-11T03:36:12.650Z,12.96
2018-05-11T03:42:17.006Z,12.90
2018-05-11T03:48:21.575Z,12.92
2018-05-11T03:54:26.854Z,12.99
2018-05-11T04:00:31.406Z,12.95
2018-05-11T04:06:53.517Z,13.09
2018-05-11T04:12:57.877Z,13.18
2018-05-11T04:19:02.220Z,13.08
2018-05-11T04:25:06.674Z,13.21
2018-05-11T04:31:11.793Z,13.35
2018-05-11T04:37:16.235Z,13.32
2018-05-11T04:43:20.746Z,13.64
2018-05-11T04:49:25.258Z,13.61
2018-05-11T04:55:29.621Z,13.62
2018-05-11T05:01:33.984Z,13.87
2018-05-11T05:07:38.345Z,13.95
2018-05-11T05:13:42.775Z,14.02
2018-05-11T05:19:47.114Z,13.99
2018-05-11T05:25:51.788Z,14.24
2018-05-11T05:31:56.163Z,14.65
2018-05-11T05:38:00.563Z,14.76
2018-05-11T05:44:05.075Z,14.86
2018-05-11T05:50:10.217Z,14.88
2018-05-11T05:56:14.563Z,15.30
2018-05-11T06:02:18.996Z,15.26
2018-05-11T06:08:24.450Z,15.44
2018-05-11T06:14:28.795Z,15.61
2018-05-11T06:20:33.927Z,15.58
2018-05-11T06:26:39.101Z,15.44
2018-05-11T06:32:43.485Z,15.66
2018-05-11T06:38:47.827Z,15.74
2018-05-11T06:44:52.596Z,15.58
2018-05-11T06:50:57.033Z,15.47
2018-05-11T06:57:01.379Z,15.66
2018-05-11T07:03:05.734Z,15.59
2018-05-11T07:09:10.847Z,15.66
2018-05-11T07:15:15.249Z,16.46
2018-05-11T07:21:20.336Z,16.97
2018-05-11T07:27:25.971Z,17.07
2018-05-11T07:33:30.329Z,17.37
2018-05-11T07:39:34.696Z,17.56
2018-05-11T07:45:39.094Z,17.23
2018-05-11T07:51:43.496Z,17.33
2018-05-11T07:57:48.621Z,17.65
2018-05-11T08:03:53.092Z,17.80
2018-05-11T08:09:58.297Z,17.90
2018-05-11T08:16:02.646Z,18.06
2018-05-11T08:22:07.770Z,18.92
2018-05-11T08:28:12.121Z,19.76
2018-05-11T08:34:16.468Z,20.21
2018-05-11T08:40:22.142Z,19.42
2018-05-11T08:46:26.732Z,18.98
2018-05-11T08:52:31.076Z,19.37
2018-05-11T08:58:35.424Z,19.49
2018-05-11T09:04:39.906Z,19.52
2018-05-11T09:10:44.273Z,19.44
2018-05-11T09:16:49.582Z,19.41
2018-05-11T09:22:54.673Z,18.59
2018-05-11T09:28:59.907Z,17.98
2018-05-11T09:35:04.364Z,18.71
2018-05-11T09:41:08.703Z,19.21
2018-05-11T09:47:13.825Z,20.56
2018-05-11T09:53:18.183Z,21.38
2018-05-11T09:59:22.632Z,20.91
2018-05-11T10:05:28.190Z,22.16
2018-05-11T10:11:33.323Z,22.13
2018-05-11T10:17:38.474Z,22.46
2018-05-11T10:23:42.834Z,22.88
2018-05-11T10:29:47.446Z,22.56
2018-05-11T10:35:52.298Z,23.69
2018-05-11T10:41:56.652Z,22.79
2018-05-11T10:48:01.781Z,22.71
2018-05-11T10:54:06.221Z,23.60
2018-05-11T11:00:11.355Z,25.73
2018-05-11T11:06:15.708Z,25.69
2018-05-11T11:12:21.366Z,23.70
2018-05-11T11:18:25.833Z,23.15
2018-05-11T11:24:30.183Z,22.76
2018-05-11T11:30:34.540Z,25.18
2018-05-11T11:36:38.887Z,25.57
2018-05-11T11:42:44.121Z,25.39
2018-05-11T11:48:48.485Z,27.45
2018-05-11T11:54:53.894Z,25.96
2018-05-11T12:00:58.232Z,24.39
2018-05-11T12:07:03.871Z,23.29
2018-05-11T12:13:08.228Z,22.39
2018-05-11T12:19:12.582Z,22.27
2018-05-11T12:25:17.688Z,22.33
2018-05-11T12:31:22.052Z,22.84
2018-05-11T12:37:26.416Z,23.70
2018-05-11T12:43:30.830Z,23.97
2018-05-11T12:49:35.173Z,24.25
2018-05-11T12:55:40.293Z,23.50
2018-05-11T13:01:44.635Z,23.01
2018-05-11T13:07:49.808Z,22.87
2018-05-11T13:13:55.040Z,22.72
2018-05-11T13:19:59.392Z,22.86
2018-05-11T13:26:04.610Z,22.82
2018-05-11T13:32:09.819Z,22.96
2018-05-11T13:38:14.170Z,22.97
2018-05-11T13:44:19.281Z,23.52
2018-05-11T13:50:23.889Z,24.61
2018-05-11T13:56:28.273Z,23.72
2018-05-11T14:02:32.624Z,23.90
2018-05-11T14:08:36.978Z,23.88
2018-05-11T14:14:41.343Z,24.07
2018-05-11T14:20:46.468Z,23.48
2018-05-11T14:26:51.902Z,23.94
2018-05-11T14:32:56.246Z,25.41
2018-05-11T14:39:00.584Z,25.71
2018-05-11T14:45:04.939Z,25.50
2018-05-11T14:51:09.400Z,24.63
2018-05-11T14:57:13.743Z,23.98
2018-05-11T15:03:18.101Z,23.65
2018-05-11T15:09:23.623Z,22.96
2018-05-11T15:15:28.816Z,22.65
2018-05-11T15:21:33.195Z,22.30
2018-05-11T15:27:37.544Z,22.17
2018-05-11T15:33:41.958Z,22.12
2018-05-11T15:39:46.315Z,22.19
2018-05-11T15:45:50.864Z,22.30
2018-05-11T15:51:55.283Z,22.24
2018-05-11T15:57:59.913Z,22.02
2018-05-11T16:04:04.328Z,22.07
2018-05-11T16:10:08.735Z,21.82
2018-05-11T16:16:13.107Z,21.70
2018-05-11T16:22:18.957Z,21.73
2018-05-11T16:28:23.745Z,21.78
2018-05-11T16:34:28.027Z,21.71
2018-05-11T16:40:32.485Z,21.84
2018-05-11T16:46:36.909Z,21.88
2018-05-11T16:52:41.264Z,22.39
2018-05-11T16:58:45.613Z,21.63
2018-05-11T17:04:50.033Z,21.25
2018-05-11T17:10:54.473Z,20.94
2018-05-11T17:16:58.869Z,20.73
2018-05-11T17:23:03.226Z,20.69
2018-05-11T17:29:07.565Z,20.65
2018-05-11T17:35:11.899Z,20.48
2018-05-11T17:41:16.250Z,20.12
2018-05-11T17:47:20.614Z,20.02
2018-05-11T17:53:25.103Z,19.76
2018-05-11T17:59:29.452Z,19.94
2018-05-11T18:05:34.553Z,19.70
2018-05-11T18:11:39.672Z,19.48
2018-05-11T18:17:44.054Z,19.09
2018-05-11T18:23:48.389Z,18.83
2018-05-11T18:29:53.629Z,18.69
2018-05-11T18:35:57.968Z,18.37
2018-05-11T18:42:03.087Z,18.15
2018-05-11T18:48:07.484Z,17.98
2018-05-11T18:54:12.270Z,17.84
2018-05-11T19:00:16.339Z,17.60
2018-05-11T19:06:21.509Z,17.49
2018-05-11T19:12:26.028Z,17.45
2018-05-11T19:18:30.440Z,17.35
2018-05-11T19:24:34.839Z,17.15
2018-05-11T19:30:39.193Z,17.03
2018-05-11T19:36:43.556Z,17.11
2018-05-11T19:42:48.684Z,16.72
2018-05-11T19:48:53.260Z,16.79
2018-05-11T19:54:57.614Z,16.56
2018-05-11T20:01:02.730Z,16.44
2018-05-11T20:07:07.187Z,16.40
2018-05-11T20:13:11.590Z,16.47
2018-05-11T20:19:15.929Z,16.39
2018-05-11T20:25:20.436Z,16.49
2018-05-11T20:31:25.035Z,16.39
2018-05-11T20:37:29.403Z,16.36
2018-05-11T20:43:33.838Z,16.35
2018-05-11T20:49:38.196Z,16.57
2018-05-11T20:55:43.396Z,16.48
2018-05-11T21:01:47.962Z,16.55
2018-05-11T21:07:52.892Z,16.56
2018-05-11T21:13:57.342Z,16.68
2018-05-11T21:20:02.467Z,16.87
2018-05-11T21:26:06.833Z,16.62
2018-05-11T21:32:11.205Z,16.66
2018-05-11T21:38:16.479Z,16.57
2018-05-11T21:44:21.086Z,16.55
2018-05-11T21:50:26.255Z,16.66
2018-05-11T21:56:31.421Z,16.48
2018-05-11T22:02:35.794Z,16.41
2018-05-11T22:08:40.175Z,16.39
2018-05-11T22:14:44.531Z,16.51
2018-05-11T22:20:49.150Z,16.45
2018-05-11T22:26:54.285Z,16.37
2018-05-11T22:32:58.646Z,16.47
2018-05-11T22:39:03.450Z,16.31
2018-05-11T22:45:07.947Z,16.29
2018-05-11T22:51:12.882Z,16.22
2018-05-11T22:57:17.280Z,16.14
2018-05-11T23:03:22.570Z,15.99
2018-05-11T23:09:27.864Z,15.93
2018-05-11T23:15:32.257Z,15.84
2018-05-11T23:21:36.631Z,15.86
2018-05-11T23:27:41.004Z,15.93
2018-05-11T23:33:45.543Z,15.72
2018-05-11T23:39:50.110Z,15.80
2018-05-11T23:45:55.133Z,15.45
2018-05-11T23:51:59.515Z,15.35
2018-05-11T23:58:03.888Z,15.44
